Time;durP1;ratioP1;P1;durP2;ratioP2;P2;SDS_P1;SDS_P2;PMS_P1;PMS_P2;Temp;Humidity;BMP_temperature;BMP_pressure;BME280_temperature;BME280_humidity;BME280_pressure;Samples;Min_cycle;Max_cycle;Signal;HPM_P1;HPM_P2
2022/04/03 00:01:43;;;;;;;0.30;0.20;;;2.00;99.90;;;;;;4986945;28;20203;-83
2022/04/03 00:04:09;;;;;;;1.47;0.97;;;2.00;99.90;;;;;;4985919;28;20224;-83
2022/04/03 00:06:34;;;;;;;0.30;0.30;;;2.00;99.90;;;;;;4985290;28;20184;-82
2022/04/03 00:09:01;;;;;;;0.70;0.53;;;1.90;99.90;;;;;;4985691;28;21073;-81
2022/04/03 00:11:28;;;;;;;0.20;0.20;;;2.00;99.90;;;;;;4986003;28;20184;-82
2022/04/03 00:13:54;;;;;;;0.20;0.20;;;2.00;99.90;;;;;;4977795;28;20204;-83
2022/04/03 00:16:20;;;;;;;0.30;0.30;;;2.00;99.90;;;;;;4983409;28;20188;-83
2022/04/03 00:18:45;;;;;;;0.10;0.10;;;2.00;99.90;;;;;;4986731;28;20196;-82
2022/04/03 00:21:14;;;;;;;0.20;0.20;;;2.00;99.90;;;;;;4986370;28;20765;-84
2022/04/03 00:23:40;;;;;;;0.13;0.13;;;1.90;99.90;;;;;;4985197;28;20246;-82
2022/04/03 00:26:06;;;;;;;0.20;0.20;;;1.80;99.90;;;;;;4986123;28;20881;-82
2022/04/03 00:28:31;;;;;;;0.27;0.27;;;1.90;99.90;;;;;;4978043;28;20239;-82
2022/04/03 00:30:57;;;;;;;0.27;0.27;;;1.90;99.90;;;;;;4985322;28;20184;-82
2022/04/03 00:33:23;;;;;;;0.10;0.10;;;1.80;99.90;;;;;;4984278;28;20200;-82
2022/04/03 00:35:50;;;;;;;0.40;0.40;;;1.80;99.90;;;;;;4984926;28;20196;-83
2022/04/03 00:38:15;;;;;;;0.20;0.20;;;1.70;99.90;;;;;;4984686;28;20207;-81
2022/04/03 00:40:43;;;;;;;0.43;0.43;;;1.70;99.90;;;;;;4986053;28;20193;-81
2022/04/03 00:43:08;;;;;;;0.10;0.10;;;1.70;99.90;;;;;;4985050;28;20683;-83
2022/04/03 00:45:34;;;;;;;0.40;0.30;;;1.70;99.90;;;;;;4986584;28;20286;-82
2022/04/03 00:48:00;;;;;;;0.20;0.20;;;1.60;99.90;;;;;;4985827;28;20315;-81
2022/04/03 00:50:26;;;;;;;2.47;2.00;;;1.60;99.90;;;;;;4984733;28;20212;-82
2022/04/03 00:52:51;;;;;;;0.80;0.80;;;1.60;99.90;;;;;;4984588;28;20183;-82
2022/04/03 00:55:17;;;;;;;0.50;0.27;;;1.60;99.90;;;;;;5000699;28;20701;-83
2022/04/03 00:57:43;;;;;;;0.50;0.50;;;1.60;99.90;;;;;;4984983;28;20233;-82
2022/04/03 01:00:09;;;;;;;1.50;0.43;;;1.50;99.90;;;;;;4992151;28;20191;-82
2022/04/03 01:02:35;;;;;;;0.20;0.20;;;1.50;99.90;;;;;;4985992;28;20213;-82
2022/04/03 01:05:01;;;;;;;0.30;0.30;;;1.50;99.90;;;;;;4984618;28;20214;-82
2022/04/03 01:07:27;;;;;;;0.30;0.30;;;1.50;99.90;;;;;;5002180;28;20195;-82
2022/04/03 01:09:53;;;;;;;0.27;0.27;;;1.40;99.90;;;;;;4988529;28;20188;-81
2022/04/03 01:12:18;;;;;;;0.40;0.40;;;1.40;99.90;;;;;;4987801;28;20242;-83
2022/04/03 01:14:44;;;;;;;0.37;0.37;;;1.30;99.90;;;;;;4990190;28;20225;-82
2022/04/03 01:17:13;;;;;;;0.10;0.10;;;1.30;99.90;;;;;;4985980;28;20195;-82
2022/04/03 01:19:39;;;;;;;0.10;0.10;;;1.30;99.90;;;;;;4987530;28;20569;-82
2022/04/03 01:22:05;;;;;;;0.20;0.20;;;1.30;99.90;;;;;;4986705;28;20306;-84
2022/04/03 01:24:31;;;;;;;0.60;0.50;;;1.30;99.90;;;;;;4987199;28;20723;-82
2022/04/03 01:26:57;;;;;;;0.10;0.10;;;1.30;99.90;;;;;;4987184;28;20194;-82
2022/04/03 01:29:23;;;;;;;0.40;0.40;;;1.30;99.90;;;;;;4987643;28;21210;-82
2022/04/03 01:31:50;;;;;;;0.10;0.10;;;1.30;99.90;;;;;;4987319;28;20188;-83
2022/04/03 01:34:17;;;;;;;0.40;0.40;;;1.20;99.90;;;;;;5002962;28;20211;-83
2022/04/03 01:36:44;;;;;;;2.37;0.70;;;1.10;99.90;;;;;;4988792;28;20247;-82
2022/04/03 01:39:10;;;;;;;0.40;0.40;;;1.10;99.90;;;;;;4987648;28;20254;-82
2022/04/03 01:41:37;;;;;;;1.03;0.63;;;1.10;99.90;;;;;;4986343;28;20196;-82
2022/04/03 01:44:04;;;;;;;0.40;0.40;;;1.10;99.90;;;;;;4986692;28;20208;-82
2022/04/03 01:46:30;;;;;;;0.67;0.40;;;1.10;99.90;;;;;;4986830;28;20683;-83
2022/04/03 01:48:55;;;;;;;0.77;0.30;;;1.00;99.90;;;;;;4986519;28;20188;-82
2022/04/03 01:51:21;;;;;;;0.20;0.20;;;1.00;99.90;;;;;;4986958;28;20206;-82
2022/04/03 01:53:46;;;;;;;0.87;0.87;;;1.00;99.90;;;;;;4985619;28;20207;-83
2022/04/03 01:56:12;;;;;;;0.17;0.17;;;1.00;99.90;;;;;;4986508;28;20180;-81
2022/04/03 01:58:37;;;;;;;0.13;0.13;;;0.90;99.90;;;;;;4988451;28;20265;-81
2022/04/03 02:01:04;;;;;;;0.10;0.10;;;0.90;99.90;;;;;;4986994;28;20180;-81
2022/04/03 02:03:30;;;;;;;0.27;0.27;;;0.90;99.90;;;;;;4986631;28;20211;-81
2022/04/03 02:05:57;;;;;;;0.67;0.67;;;0.90;99.90;;;;;;4986208;28;20193;-83
2022/04/03 02:08:23;;;;;;;0.10;0.10;;;0.90;99.90;;;;;;4987044;28;20274;-81
2022/04/03 02:10:48;;;;;;;0.10;0.10;;;0.80;99.90;;;;;;5002592;28;20270;-82
2022/04/03 02:13:14;;;;;;;0.20;0.20;;;0.90;99.90;;;;;;4986686;28;20191;-84
2022/04/03 02:15:39;;;;;;;0.93;0.93;;;0.90;99.90;;;;;;4988407;28;20282;-82
2022/04/03 02:18:05;;;;;;;0.10;0.10;;;0.90;99.90;;;;;;4985934;28;20192;-83
2022/04/03 02:20:34;;;;;;;0.37;0.37;;;0.90;99.90;;;;;;5002384;28;20340;-81
2022/04/03 02:22:59;;;;;;;0.33;0.30;;;0.90;99.90;;;;;;4986934;28;20222;-82
2022/04/03 02:25:25;;;;;;;0.23;0.23;;;0.80;99.90;;;;;;4986236;28;20203;-82
2022/04/03 02:27:52;;;;;;;0.17;0.17;;;0.80;99.90;;;;;;4987792;28;20553;-83
2022/04/03 02:30:18;;;;;;;0.13;0.13;;;0.80;99.90;;;;;;4985605;28;20188;-83
2022/04/03 02:32:43;;;;;;;0.60;0.60;;;0.80;99.90;;;;;;4986094;28;20735;-82
2022/04/03 02:35:11;;;;;;;2.00;0.60;;;0.70;99.90;;;;;;4984628;28;20743;-82
2022/04/03 02:37:39;;;;;;;0.30;0.30;;;0.70;99.90;;;;;;4987482;28;20298;-82
2022/04/03 02:40:06;;;;;;;0.17;0.17;;;0.70;99.90;;;;;;4985624;28;20187;-82
2022/04/03 02:42:33;;;;;;;0.30;0.30;;;0.70;99.90;;;;;;4986258;28;20203;-84
2022/04/03 02:44:58;;;;;;;0.10;0.10;;;0.70;99.90;;;;;;4988483;28;20227;-81
2022/04/03 02:47:24;;;;;;;0.10;0.10;;;0.70;99.90;;;;;;4986419;28;20187;-82
2022/04/03 02:49:51;;;;;;;0.23;0.23;;;0.70;99.90;;;;;;4986776;28;20637;-82
2022/04/03 02:52:18;;;;;;;0.53;0.53;;;0.70;99.90;;;;;;4985658;28;20274;-82
2022/04/03 02:54:45;;;;;;;0.43;0.43;;;0.70;99.90;;;;;;4986114;28;20214;-81
2022/04/03 02:57:17;;;;;;;0.20;0.20;;;0.60;99.90;;;;;;4986039;28;20198;-83
2022/04/03 02:59:43;;;;;;;0.13;0.13;;;0.60;99.90;;;;;;4987065;28;20186;-82
2022/04/03 03:02:10;;;;;;;0.23;0.23;;;0.60;99.90;;;;;;5002418;28;20207;-82
2022/04/03 03:04:36;;;;;;;0.50;0.50;;;0.50;99.90;;;;;;4985958;28;20209;-82
2022/04/03 03:07:03;;;;;;;0.10;0.10;;;0.50;99.90;;;;;;4986297;28;20187;-83
2022/04/03 03:09:29;;;;;;;0.10;0.10;;;0.50;99.90;;;;;;4977534;28;20172;-81
2022/04/03 03:11:54;;;;;;;0.43;0.43;;;0.60;99.90;;;;;;4986070;28;20195;-82
2022/04/03 03:14:21;;;;;;;0.87;0.20;;;0.60;99.90;;;;;;4986718;28;20230;-83
2022/04/03 03:16:47;;;;;;;0.60;0.40;;;0.50;99.90;;;;;;4986421;28;20191;-82
2022/04/03 03:19:12;;;;;;;0.10;0.10;;;0.60;99.90;;;;;;5002740;28;20680;-82
2022/04/03 03:21:38;;;;;;;0.10;0.10;;;0.50;99.90;;;;;;4985777;28;20188;-82
2022/04/03 03:24:04;;;;;;;0.10;0.10;;;0.50;99.90;;;;;;4985689;28;20206;-82
2022/04/03 03:26:29;;;;;;;0.10;0.10;;;0.50;99.90;;;;;;4985778;28;21134;-81
2022/04/03 03:28:55;;;;;;;0.20;0.20;;;0.50;99.90;;;;;;4986061;28;20560;-82
2022/04/03 03:31:20;;;;;;;0.40;0.30;;;0.50;99.90;;;;;;4986749;28;20190;-83
2022/04/03 03:33:47;;;;;;;0.67;0.67;;;0.50;99.90;;;;;;4987154;28;20199;-82
2022/04/03 03:36:13;;;;;;;0.10;0.10;;;0.50;99.90;;;;;;4985310;28;20226;-83
2022/04/03 03:38:38;;;;;;;0.17;0.17;;;0.50;99.90;;;;;;4986587;28;20660;-81
2022/04/03 03:41:04;;;;;;;0.20;0.20;;;0.50;99.90;;;;;;4985302;28;20191;-82
2022/04/03 03:43:29;;;;;;;0.13;0.13;;;0.40;99.90;;;;;;4984941;28;20211;-82
2022/04/03 03:45:56;;;;;;;0.33;0.33;;;0.40;99.90;;;;;;4986055;28;20290;-82
2022/04/03 03:48:22;;;;;;;0.30;0.30;;;0.40;99.90;;;;;;4988116;28;20176;-82
2022/04/03 03:50:48;;;;;;;0.10;0.10;;;0.40;99.90;;;;;;4986421;28;20245;-82
2022/04/03 03:53:13;;;;;;;0.40;0.17;;;0.30;99.90;;;;;;4986571;28;20199;-80
2022/04/03 03:55:39;;;;;;;0.83;0.33;;;0.30;99.90;;;;;;4986101;28;20219;-81
2022/04/03 03:58:04;;;;;;;0.30;0.30;;;0.40;99.90;;;;;;4986378;28;20257;-81
2022/04/03 04:00:30;;;;;;;0.03;0.03;;;0.30;99.90;;;;;;4986061;28;20192;-82
2022/04/03 04:02:56;;;;;;;0.27;0.13;;;0.40;99.90;;;;;;4986034;28;20905;-82
2022/04/03 04:05:22;;;;;;;0.50;0.50;;;0.50;99.90;;;;;;5001206;28;20210;-83
2022/04/03 04:07:48;;;;;;;1.47;0.23;;;0.50;99.90;;;;;;4985775;28;20195;-82
2022/04/03 04:10:16;;;;;;;0.37;0.20;;;0.50;99.90;;;;;;4985982;28;20240;-82
2022/04/03 04:12:43;;;;;;;0.20;0.20;;;0.50;99.90;;;;;;4985613;28;20226;-81
2022/04/03 04:15:10;;;;;;;0.10;0.10;;;0.50;99.90;;;;;;4985717;28;20249;-83
2022/04/03 04:17:44;;;;;;;1.03;0.60;;;0.60;99.90;;;;;;4986061;28;20191;-82
2022/04/03 04:20:12;;;;;;;1.70;0.27;;;0.60;99.90;;;;;;4985999;28;20187;-81
2022/04/03 04:22:39;;;;;;;0.23;0.23;;;0.50;99.90;;;;;;4987016;28;20221;-82
2022/04/03 04:25:06;;;;;;;0.10;0.10;;;0.60;99.90;;;;;;5001459;28;20239;-82
2022/04/03 04:27:31;;;;;;;0.10;0.10;;;0.50;99.90;;;;;;4977466;28;20228;-81
2022/04/03 04:29:57;;;;;;;0.00;0.00;;;0.60;99.90;;;;;;4988253;28;20568;-83
2022/04/03 04:32:23;;;;;;;0.10;0.10;;;0.60;99.90;;;;;;4985379;28;20188;-82
2022/04/03 04:34:50;;;;;;;0.40;0.20;;;0.70;99.90;;;;;;4987047;28;20220;-82
2022/04/03 04:37:16;;;;;;;0.20;0.20;;;0.70;99.90;;;;;;4986490;28;20258;-84
2022/04/03 04:39:42;;;;;;;0.57;0.40;;;0.70;99.90;;;;;;4986205;28;20234;-82
2022/04/03 04:42:08;;;;;;;0.10;0.10;;;0.70;99.90;;;;;;4986838;28;20243;-81
2022/04/03 04:44:33;;;;;;;0.10;0.10;;;0.70;99.90;;;;;;4990537;28;20223;-82
2022/04/03 04:46:59;;;;;;;0.03;0.03;;;0.70;99.90;;;;;;4978031;28;20183;-82
2022/04/03 04:49:25;;;;;;;0.20;0.20;;;0.80;99.90;;;;;;4985688;28;20216;-82
2022/04/03 04:51:50;;;;;;;0.10;0.10;;;0.80;99.90;;;;;;4983970;28;20187;-81
2022/04/03 04:54:16;;;;;;;0.30;0.30;;;0.90;99.90;;;;;;4990323;28;20631;-83
2022/04/03 04:56:42;;;;;;;0.10;0.10;;;1.00;99.90;;;;;;4991132;28;20180;-82
2022/04/03 04:59:07;;;;;;;0.10;0.10;;;0.90;99.90;;;;;;4990932;28;20201;-81
2022/04/03 05:01:33;;;;;;;0.20;0.20;;;1.00;99.90;;;;;;4991049;28;20189;-81
2022/04/03 05:03:58;;;;;;;0.40;0.40;;;1.00;99.90;;;;;;4990664;28;20281;-81
2022/04/03 05:06:26;;;;;;;0.20;0.20;;;1.00;99.90;;;;;;4990445;28;20180;-82
2022/04/03 05:08:52;;;;;;;0.10;0.10;;;1.10;99.90;;;;;;4991378;28;20208;-82
2022/04/03 05:11:18;;;;;;;0.27;0.27;;;0.90;99.90;;;;;;4983861;28;20262;-83
2022/04/03 05:13:44;;;;;;;0.10;0.10;;;0.80;99.90;;;;;;4986610;28;20766;-83
2022/04/03 05:16:10;;;;;;;0.13;0.13;;;0.90;99.90;;;;;;4991258;28;20191;-81
2022/04/03 05:18:36;;;;;;;0.20;0.20;;;0.80;99.90;;;;;;4991593;28;20208;-82
2022/04/03 05:21:04;;;;;;;0.50;0.20;;;0.80;99.90;;;;;;4991870;28;20194;-81
2022/04/03 05:23:30;;;;;;;0.10;0.10;;;0.80;99.90;;;;;;5007070;28;20243;-81
2022/04/03 05:25:56;;;;;;;0.17;0.17;;;0.90;99.90;;;;;;4984326;28;20279;-81
2022/04/03 05:28:22;;;;;;;0.20;0.20;;;1.00;99.90;;;;;;4990304;28;20829;-81
2022/04/03 05:30:48;;;;;;;0.20;0.20;;;0.90;99.90;;;;;;4990162;28;20200;-81
2022/04/03 05:33:14;;;;;;;0.07;0.07;;;1.00;99.90;;;;;;4989205;28;20228;-82
2022/04/03 05:35:40;;;;;;;0.30;0.30;;;1.10;99.90;;;;;;4991244;28;20257;-82
2022/04/03 05:38:05;;;;;;;0.20;0.20;;;1.10;99.90;;;;;;4989961;28;20210;-81
2022/04/03 05:40:31;;;;;;;0.10;0.10;;;1.10;99.90;;;;;;4990607;28;20183;-81
2022/04/03 05:42:58;;;;;;;1.13;0.40;;;1.10;99.90;;;;;;4989640;28;20208;-81
2022/04/03 05:45:24;;;;;;;0.50;0.50;;;1.10;99.90;;;;;;5005832;28;20234;-81
2022/04/03 05:47:50;;;;;;;0.70;0.37;;;1.20;99.90;;;;;;4990058;28;20191;-81
2022/04/03 05:50:16;;;;;;;0.10;0.10;;;1.20;99.90;;;;;;4989473;28;20211;-81
2022/04/03 05:52:47;;;;;;;0.40;0.40;;;1.30;99.90;;;;;;4988443;28;20649;-82
2022/04/03 05:55:15;;;;;;;0.17;0.17;;;1.40;99.90;;;;;;5006112;28;20619;-82
2022/04/03 05:57:41;;;;;;;0.20;0.20;;;1.40;99.90;;;;;;4988674;28;20197;-81
2022/04/03 06:00:12;;;;;;;0.47;0.37;;;1.30;99.90;;;;;;4986957;28;20709;-82
2022/04/03 06:02:58;;;;;;;1.33;0.90;;;1.40;99.90;;;;;;4986449;28;20226;-80
2022/04/03 06:05:29;;;;;;;0.50;0.50;;;1.50;99.90;;;;;;4989132;28;20215;-80
2022/04/03 06:07:55;;;;;;;0.20;0.10;;;1.50;99.90;;;;;;4987027;28;20196;-80
2022/04/03 06:10:24;;;;;;;0.20;0.20;;;1.60;99.90;;;;;;4990010;28;20259;-80
2022/04/03 06:13:04;;;;;;;0.00;0.00;;;1.80;99.90;;;;;;4982924;28;20728;-81
2022/04/03 06:15:37;;;;;;;0.10;0.10;;;1.80;99.90;;;;;;4986452;28;20215;-80
2022/04/03 06:18:05;;;;;;;0.10;0.10;;;1.80;99.90;;;;;;4988151;28;20200;-80
2022/04/03 06:20:31;;;;;;;1.07;1.07;;;2.00;99.90;;;;;;4987327;28;20200;-80
2022/04/03 06:22:57;;;;;;;0.37;0.37;;;2.00;99.90;;;;;;4987764;28;20559;-80
2022/04/03 06:25:23;;;;;;;0.33;0.33;;;2.10;99.90;;;;;;4988218;28;20204;-80
2022/04/03 06:27:51;;;;;;;0.57;0.50;;;2.30;99.90;;;;;;4987343;28;20203;-80
2022/04/03 06:30:17;;;;;;;0.13;0.13;;;2.30;99.90;;;;;;4985893;28;20178;-80
2022/04/03 06:32:43;;;;;;;0.20;0.20;;;2.20;99.90;;;;;;4985180;28;20184;-80
2022/04/03 06:35:09;;;;;;;0.10;0.10;;;2.30;99.90;;;;;;4988472;28;20315;-80
2022/04/03 06:37:36;;;;;;;0.20;0.20;;;2.40;99.90;;;;;;4986601;28;20588;-79
2022/04/03 06:40:02;;;;;;;0.33;0.33;;;2.30;99.90;;;;;;4993298;28;20208;-79
2022/04/03 06:42:30;;;;;;;0.30;0.30;;;2.40;99.90;;;;;;4984269;28;20214;-79
2022/04/03 06:44:56;;;;;;;0.10;0.10;;;2.50;99.90;;;;;;4984705;28;20210;-80
2022/04/03 06:47:22;;;;;;;0.60;0.60;;;2.60;99.90;;;;;;4999718;28;20238;-80
2022/04/03 06:49:48;;;;;;;0.33;0.33;;;2.60;99.90;;;;;;4983257;28;20184;-80
2022/04/03 06:52:13;;;;;;;0.20;0.20;;;2.70;99.90;;;;;;4984373;28;20235;-79
2022/04/03 06:54:39;;;;;;;0.10;0.10;;;2.70;99.90;;;;;;4984707;28;20627;-83
2022/04/03 06:57:04;;;;;;;0.17;0.17;;;2.90;99.90;;;;;;4991037;28;20212;-80
2022/04/03 06:59:30;;;;;;;0.10;0.10;;;2.80;99.90;;;;;;4989403;28;20188;-80
2022/04/03 07:01:56;;;;;;;0.07;0.07;;;2.80;99.90;;;;;;4989068;28;20217;-80
2022/04/03 07:04:21;;;;;;;0.03;0.03;;;2.90;99.90;;;;;;5004343;28;20681;-80
2022/04/03 07:06:47;;;;;;;0.20;0.20;;;2.90;99.90;;;;;;5002848;28;20180;-80
2022/04/03 07:09:13;;;;;;;0.00;0.00;;;3.00;99.90;;;;;;4988984;28;20668;-80
2022/04/03 07:11:38;;;;;;;0.10;0.10;;;3.20;99.90;;;;;;4985638;28;20208;-80
2022/04/03 07:14:04;;;;;;;0.33;0.13;;;3.00;99.90;;;;;;4982874;28;20207;-80
2022/04/03 07:16:30;;;;;;;0.10;0.10;;;3.20;99.90;;;;;;4984933;28;20188;-80
2022/04/03 07:18:56;;;;;;;0.10;0.10;;;3.20;99.90;;;;;;4986674;28;20198;-79
2022/04/03 07:21:22;;;;;;;0.10;0.10;;;3.20;99.90;;;;;;4986369;28;20180;-79
2022/04/03 07:23:47;;;;;;;0.27;0.27;;;3.20;99.90;;;;;;4984979;28;20230;-80
2022/04/03 07:26:13;;;;;;;0.10;0.10;;;3.50;99.90;;;;;;4987314;28;20187;-80
2022/04/03 07:28:38;;;;;;;0.10;0.10;;;3.60;99.90;;;;;;4985730;28;20198;-79
2022/04/03 07:31:04;;;;;;;0.00;0.00;;;3.50;99.90;;;;;;4984926;28;20191;-80
2022/04/03 07:33:30;;;;;;;0.10;0.10;;;3.70;99.90;;;;;;4985733;28;20190;-80
2022/04/03 07:35:55;;;;;;;0.10;0.10;;;3.80;99.90;;;;;;4986230;28;20214;-80
2022/04/03 07:38:21;;;;;;;0.30;0.23;;;3.80;99.90;;;;;;4985870;28;20258;-80
2022/04/03 07:40:47;;;;;;;0.20;0.20;;;3.80;99.90;;;;;;4985669;28;20268;-80
2022/04/03 07:43:16;;;;;;;0.10;0.10;;;4.00;99.90;;;;;;4985177;28;20603;-80
2022/04/03 07:45:42;;;;;;;0.10;0.10;;;4.00;99.90;;;;;;4986581;28;20201;-80
2022/04/03 07:48:08;;;;;;;0.33;0.33;;;4.40;99.90;;;;;;4985085;28;20174;-80
2022/04/03 07:50:33;;;;;;;0.10;0.10;;;4.30;99.90;;;;;;4986274;28;20187;-79
2022/04/03 07:52:59;;;;;;;0.07;0.07;;;4.10;99.90;;;;;;4986265;28;20189;-80
2022/04/03 07:55:24;;;;;;;0.57;0.30;;;4.20;99.90;;;;;;4984839;28;20201;-80
2022/04/03 07:57:50;;;;;;;0.00;0.00;;;4.00;99.90;;;;;;4983907;28;20196;-80
2022/04/03 08:00:16;;;;;;;0.10;0.10;;;4.30;99.90;;;;;;4982992;28;20251;-82
2022/04/03 08:02:42;;;;;;;0.83;0.40;;;4.50;99.90;;;;;;4983525;28;20227;-82
2022/04/03 08:05:09;;;;;;;0.10;0.10;;;4.50;99.90;;;;;;4984586;28;21771;-81
2022/04/03 08:07:44;;;;;;;0.10;0.10;;;4.50;99.90;;;;;;4980386;28;20284;-83
2022/04/03 08:10:12;;;;;;;0.03;0.03;;;4.60;99.90;;;;;;5002109;28;20668;-82
2022/04/03 08:12:40;;;;;;;0.10;0.10;;;4.80;99.90;;;;;;4998599;28;20181;-81
2022/04/03 08:15:07;;;;;;;0.23;0.23;;;4.80;99.90;;;;;;4982164;28;20248;-82
2022/04/03 08:17:40;;;;;;;0.43;0.40;;;4.90;99.90;;;;;;5002628;28;20191;-82
2022/04/03 08:20:11;;;;;;;0.10;0.10;;;4.70;99.90;;;;;;4991274;28;20215;-82
2022/04/03 08:22:37;;;;;;;0.20;0.20;;;5.00;99.90;;;;;;5004614;28;20209;-82
2022/04/03 08:25:07;;;;;;;0.10;0.10;;;5.00;99.90;;;;;;4992833;28;20216;-82
2022/04/03 08:27:44;;;;;;;0.00;0.00;;;4.90;99.90;;;;;;4992810;28;20189;-82
2022/04/03 08:30:16;;;;;;;0.77;0.77;;;4.90;99.90;;;;;;4983465;28;20637;-82
2022/04/03 08:32:42;;;;;;;0.20;0.20;;;4.90;99.90;;;;;;4991216;28;20193;-82
2022/04/03 08:35:09;;;;;;;0.83;0.60;;;4.70;99.90;;;;;;4986339;28;20249;-82
2022/04/03 08:37:35;;;;;;;0.13;0.13;;;4.80;99.90;;;;;;4990365;28;20193;-82
2022/04/03 08:40:01;;;;;;;0.10;0.10;;;5.00;99.90;;;;;;4991615;28;20248;-82
2022/04/03 08:42:27;;;;;;;0.13;0.13;;;4.70;99.90;;;;;;4990963;28;20240;-82
2022/04/03 08:44:52;;;;;;;0.27;0.27;;;4.60;99.90;;;;;;5006357;28;20215;-82
2022/04/03 08:47:20;;;;;;;0.10;0.10;;;4.80;99.90;;;;;;4990499;28;20207;-83
2022/04/03 08:49:47;;;;;;;0.10;0.10;;;5.20;99.90;;;;;;4989925;28;20253;-82
2022/04/03 08:52:13;;;;;;;0.30;0.30;;;5.30;99.90;;;;;;5005328;28;20219;-79
2022/04/03 08:54:39;;;;;;;0.23;0.20;;;5.50;99.90;;;;;;4988375;28;20204;-80
2022/04/03 08:57:05;;;;;;;0.10;0.10;;;5.30;99.90;;;;;;4986812;28;20269;-80
2022/04/03 08:59:31;;;;;;;0.20;0.20;;;5.20;99.90;;;;;;4987293;28;20196;-80
2022/04/03 09:01:56;;;;;;;0.53;0.40;;;5.30;99.90;;;;;;4990226;28;20247;-80
2022/04/03 09:04:22;;;;;;;0.10;0.10;;;5.10;99.90;;;;;;4988589;28;20804;-80
2022/04/03 09:06:58;;;;;;;0.30;0.30;;;5.20;99.90;;;;;;4988943;28;20312;-80
2022/04/03 09:09:25;;;;;;;0.10;0.10;;;5.40;99.90;;;;;;4988474;28;20189;-80
2022/04/03 09:12:26;;;;;;;0.10;0.10;;;5.60;99.90;;;;;;4988107;28;20219;-80
2022/04/03 09:14:55;;;;;;;0.07;0.07;;;6.10;99.90;;;;;;4932383;29;20303;-80
2022/04/03 09:17:32;;;;;;;0.87;0.40;;;6.00;99.90;;;;;;4977085;28;20672;-80
2022/04/03 09:20:05;;;;;;;0.10;0.10;;;6.30;99.90;;;;;;4989654;28;20241;-80
2022/04/03 09:22:32;;;;;;;0.00;0.00;;;6.20;99.90;;;;;;5004912;28;20206;-80
2022/04/03 09:24:58;;;;;;;0.20;0.20;;;6.00;99.90;;;;;;4980505;28;20215;-80
2022/04/03 09:27:24;;;;;;;0.20;0.20;;;6.40;99.90;;;;;;4989328;28;20187;-80
2022/04/03 09:30:10;;;;;;;0.10;0.10;;;6.60;99.90;;;;;;4987820;28;20180;-80
2022/04/03 09:32:44;;;;;;;0.10;0.10;;;6.30;99.90;;;;;;4989403;28;20660;-80
2022/04/03 09:35:10;;;;;;;0.20;0.20;;;6.00;99.90;;;;;;4989426;28;20233;-80
2022/04/03 09:37:36;;;;;;;0.20;0.20;;;6.10;99.90;;;;;;4987743;28;20184;-80
2022/04/03 09:40:03;;;;;;;0.10;0.10;;;6.00;99.90;;;;;;4989202;28;20203;-80
2022/04/03 09:42:30;;;;;;;0.10;0.10;;;5.90;99.90;;;;;;5003824;28;20222;-80
2022/04/03 09:44:56;;;;;;;0.23;0.23;;;6.20;99.90;;;;;;4987205;28;20208;-80
2022/04/03 09:47:24;;;;;;;0.10;0.10;;;6.10;99.90;;;;;;4981504;28;20223;-80
2022/04/03 09:49:52;;;;;;;0.40;0.40;;;6.20;99.90;;;;;;4987555;28;20187;-80
2022/04/03 09:52:41;;;;;;;0.13;0.13;;;6.60;99.90;;;;;;4988125;28;20235;-80
2022/04/03 09:55:07;;;;;;;0.10;0.10;;;6.40;99.90;;;;;;4977893;28;20215;-80
2022/04/03 09:57:33;;;;;;;0.30;0.30;;;5.70;99.90;;;;;;4987143;28;20188;-80
2022/04/03 09:59:58;;;;;;;0.20;0.20;;;6.50;99.90;;;;;;4987122;28;20932;-80
2022/04/03 10:02:24;;;;;;;0.10;0.10;;;6.30;99.90;;;;;;4987805;28;20214;-80
2022/04/03 10:04:51;;;;;;;0.20;0.20;;;6.20;99.90;;;;;;4988710;28;20232;-80
2022/04/03 10:07:18;;;;;;;0.10;0.10;;;6.60;99.90;;;;;;4989843;28;20192;-80
2022/04/03 10:09:48;;;;;;;0.10;0.10;;;6.50;99.90;;;;;;4988359;28;20186;-80
2022/04/03 10:12:16;;;;;;;0.20;0.20;;;5.80;99.90;;;;;;4990519;28;20265;-80
2022/04/03 10:14:44;;;;;;;0.10;0.10;;;6.10;99.90;;;;;;4988200;28;20572;-82
2022/04/03 10:17:10;;;;;;;0.07;0.07;;;6.50;99.90;;;;;;4989452;28;20291;-80
2022/04/03 10:19:35;;;;;;;0.10;0.10;;;7.10;99.90;;;;;;4981096;28;20318;-80
2022/04/03 10:22:03;;;;;;;0.10;0.10;;;6.80;99.90;;;;;;4988654;28;20622;-80
2022/04/03 10:24:30;;;;;;;0.10;0.10;;;6.70;99.90;;;;;;5002784;28;20203;-80
2022/04/03 10:27:08;;;;;;;0.10;0.10;;;6.50;99.90;;;;;;4984662;28;20308;-80
2022/04/03 10:29:38;;;;;;;0.10;0.10;;;6.20;99.90;;;;;;4987428;28;20230;-80
2022/04/03 10:32:04;;;;;;;0.13;0.13;;;6.20;99.90;;;;;;4987268;28;20195;-80
2022/04/03 10:34:43;;;;;;;0.40;0.20;;;6.20;99.90;;;;;;4987203;28;20230;-80
2022/04/03 10:37:22;;;;;;;0.10;0.10;;;6.60;99.90;;;;;;4985910;28;20268;-79
2022/04/03 10:39:52;;;;;;;0.10;0.10;;;6.60;99.90;;;;;;4989827;28;20195;-81
2022/04/03 10:42:25;;;;;;;0.10;0.10;;;6.50;99.90;;;;;;4989401;28;20207;-79
2022/04/03 10:45:12;;;;;;;0.00;0.00;;;6.50;99.90;;;;;;4986026;28;20209;-80
2022/04/03 10:47:42;;;;;;;0.60;0.60;;;7.50;99.90;;;;;;4979079;28;20188;-80
2022/04/03 10:50:12;;;;;;;0.20;0.20;;;7.00;99.90;;;;;;4984866;28;20194;-80
2022/04/03 10:52:37;;;;;;;0.20;0.20;;;7.10;99.90;;;;;;4999857;28;20669;-80
2022/04/03 10:55:34;;;;;;;0.53;0.53;;;6.60;99.90;;;;;;4986617;28;20211;-80
2022/04/03 10:58:06;;;;;;;0.10;0.10;;;6.80;99.90;;;;;;4984887;28;20302;-80
2022/04/03 11:00:32;;;;;;;0.10;0.10;;;7.00;99.90;;;;;;4987416;28;20179;-80
2022/04/03 11:02:57;;;;;;;0.20;0.20;;;7.00;99.90;;;;;;4985237;28;20751;-80
2022/04/03 11:05:24;;;;;;;0.10;0.10;;;6.70;99.90;;;;;;4987467;28;20196;-81
2022/04/03 11:08:00;;;;;;;0.10;0.10;;;7.50;99.90;;;;;;4985552;28;20282;-80
2022/04/03 11:10:54;;;;;;;0.10;0.10;;;7.50;99.90;;;;;;4987832;28;20274;-80
2022/04/03 11:13:29;;;;;;;0.10;0.10;;;7.50;99.90;;;;;;4979428;28;20183;-80
2022/04/03 11:16:01;;;;;;;0.20;0.20;;;7.40;99.90;;;;;;4977035;28;20808;-81
2022/04/03 11:18:29;;;;;;;0.20;0.20;;;6.90;99.90;;;;;;4986293;28;20734;-80
2022/04/03 11:21:10;;;;;;;0.10;0.10;;;7.10;99.90;;;;;;4987235;28;20194;-81
2022/04/03 11:23:38;;;;;;;0.10;0.10;;;7.70;99.90;;;;;;4985221;28;20850;-80
2022/04/03 11:26:04;;;;;;;0.10;0.10;;;8.00;99.90;;;;;;4985930;28;20188;-80
2022/04/03 11:28:34;;;;;;;0.10;0.10;;;6.90;99.90;;;;;;4985001;28;20194;-81
2022/04/03 11:31:00;;;;;;;0.17;0.17;;;7.00;99.90;;;;;;4987174;28;20188;-81
2022/04/03 11:33:27;;;;;;;0.13;0.13;;;7.60;99.90;;;;;;4987466;28;20195;-81
2022/04/03 11:35:53;;;;;;;0.20;0.20;;;8.00;99.90;;;;;;4986739;28;20286;-81
2022/04/03 11:38:20;;;;;;;0.10;0.10;;;7.90;99.90;;;;;;4986236;28;20218;-81
2022/04/03 11:40:47;;;;;;;0.20;0.20;;;8.10;99.90;;;;;;4986527;28;20192;-81
2022/04/03 11:43:18;;;;;;;0.07;0.07;;;8.30;99.90;;;;;;5000926;28;20222;-81
2022/04/03 11:45:58;;;;;;;0.10;0.10;;;8.30;99.90;;;;;;4986207;28;20203;-81
2022/04/03 11:48:36;;;;;;;0.20;0.20;;;7.80;99.90;;;;;;4986429;28;20226;-81
2022/04/03 11:51:05;;;;;;;0.10;0.10;;;7.60;99.90;;;;;;4986197;28;20233;-81
2022/04/03 11:53:31;;;;;;;0.10;0.10;;;7.80;99.90;;;;;;5001125;28;20198;-81
2022/04/03 11:56:08;;;;;;;0.10;0.10;;;8.30;99.90;;;;;;4985502;28;20190;-81
2022/04/03 11:58:38;;;;;;;0.20;0.20;;;7.80;99.90;;;;;;4983721;28;20656;-81
2022/04/03 12:01:03;;;;;;;0.37;0.20;;;8.10;99.90;;;;;;4984266;28;20194;-81
2022/04/03 12:03:29;;;;;;;0.17;0.17;;;8.50;99.90;;;;;;4985327;28;20603;-81
2022/04/03 12:06:15;;;;;;;0.30;0.30;;;8.30;99.90;;;;;;4986318;28;20188;-81
2022/04/03 12:08:42;;;;;;;0.37;0.30;;;7.60;99.90;;;;;;5001058;28;20186;-81
2022/04/03 12:11:19;;;;;;;0.27;0.20;;;7.10;99.90;;;;;;5002106;28;20675;-81
2022/04/03 12:13:44;;;;;;;0.43;0.10;;;7.20;99.90;;;;;;4984839;28;20214;-80
2022/04/03 12:16:19;;;;;;;0.67;0.67;;;7.60;99.90;;;;;;4986341;28;20188;-81
2022/04/03 12:18:57;;;;;;;0.13;0.13;;;7.10;99.90;;;;;;4986232;28;20198;-80
2022/04/03 12:21:35;;;;;;;0.10;0.10;;;7.40;99.90;;;;;;4986478;28;20187;-81
2022/04/03 12:24:06;;;;;;;0.17;0.17;;;8.30;99.90;;;;;;4986107;28;20303;-80
2022/04/03 12:26:32;;;;;;;3.67;0.47;;;8.70;99.90;;;;;;4986932;28;20194;-80
2022/04/03 12:28:58;;;;;;;0.10;0.10;;;8.90;99.90;;;;;;4986861;28;20641;-81
2022/04/03 12:31:32;;;;;;;0.27;0.20;;;8.60;99.90;;;;;;4988107;28;20306;-80
2022/04/03 12:34:18;;;;;;;0.10;0.10;;;8.50;99.90;;;;;;4986994;28;20203;-80
2022/04/03 12:36:49;;;;;;;0.20;0.20;;;8.60;99.90;;;;;;4978764;28;20220;-80
2022/04/03 12:39:35;;;;;;;0.30;0.30;;;7.30;99.90;;;;;;4985903;28;20185;-81
2022/04/03 12:42:16;;;;;;;0.20;0.20;;;7.10;99.90;;;;;;4987594;28;20776;-80
2022/04/03 12:45:08;;;;;;;0.10;0.10;;;7.20;99.90;;;;;;4978028;28;20207;-80
2022/04/03 12:47:37;;;;;;;0.10;0.10;;;7.50;99.90;;;;;;4976922;28;20251;-81
2022/04/03 12:50:03;;;;;;;0.10;0.10;;;7.70;99.90;;;;;;4985997;28;20195;-81
2022/04/03 12:52:47;;;;;;;0.10;0.10;;;7.70;99.90;;;;;;4986768;28;20187;-81
2022/04/03 12:55:22;;;;;;;0.13;0.13;;;7.80;99.90;;;;;;4978287;28;20349;-81
2022/04/03 13:01:14;;;;;;;0.10;0.10;;;8.00;99.90;;;;;;4987696;28;20187;-80
2022/04/03 13:03:51;;;;;;;2.00;0.77;;;7.70;99.90;;;;;;4987740;28;20230;-80
2022/04/03 13:06:33;;;;;;;0.10;0.10;;;7.50;99.90;;;;;;4988642;28;20179;-80